sensor_id;sensor_type;location;lat;lon;timestamp;P1;durP1;ratioP1;P2;durP2;ratioP2
39370;SDS011;25099;51.946;4.838;2024-02-16T00:00:49;4.13;;;3.70;;
39370;SDS011;25099;51.946;4.838;2024-02-16T00:03:15;8.70;;;3.20;;
39370;SDS011;25099;51.946;4.838;2024-02-16T00:05:40;6.70;;;3.28;;
39370;SDS011;25099;51.946;4.838;2024-02-16T00:08:06;5.00;;;3.60;;
39370;SDS011;25099;51.946;4.838;2024-02-16T00:10:34;4.82;;;2.97;;
39370;SDS011;25099;51.946;4.838;2024-02-16T00:13:06;4.00;;;3.60;;
39370;SDS011;25099;51.946;4.838;2024-02-16T00:15:31;5.38;;;3.35;;
39370;SDS011;25099;51.946;4.838;2024-02-16T00:17:57;4.75;;;3.33;;
39370;SDS011;25099;51.946;4.838;2024-02-16T00:20:39;3.88;;;3.00;;
39370;SDS011;25099;51.946;4.838;2024-02-16T00:23:17;3.45;;;2.78;;
39370;SDS011;25099;51.946;4.838;2024-02-16T00:25:44;4.82;;;2.80;;
39370;SDS011;25099;51.946;4.838;2024-02-16T00:28:10;5.35;;;2.95;;
39370;SDS011;25099;51.946;4.838;2024-02-16T00:30:42;3.65;;;3.15;;
39370;SDS011;25099;51.946;4.838;2024-02-16T00:33:09;4.30;;;3.72;;
39370;SDS011;25099;51.946;4.838;2024-02-16T00:35:34;4.57;;;3.53;;
39370;SDS011;25099;51.946;4.838;2024-02-16T00:38:00;8.70;;;3.40;;
39370;SDS011;25099;51.946;4.838;2024-02-16T00:40:37;3.88;;;3.47;;
39370;SDS011;25099;51.946;4.838;2024-02-16T00:43:08;4.50;;;3.42;;
39370;SDS011;25099;51.946;4.838;2024-02-16T00:45:34;6.00;;;3.45;;
39370;SDS011;25099;51.946;4.838;2024-02-16T00:48:00;6.20;;;3.92;;
39370;SDS011;25099;51.946;4.838;2024-02-16T00:50:27;7.55;;;3.35;;
39370;SDS011;25099;51.946;4.838;2024-02-16T00:53:01;7.00;;;3.55;;
39370;SDS011;25099;51.946;4.838;2024-02-16T00:55:29;4.65;;;3.22;;
39370;SDS011;25099;51.946;4.838;2024-02-16T00:57:55;3.42;;;3.10;;
39370;SDS011;25099;51.946;4.838;2024-02-16T01:00:21;4.03;;;3.35;;
39370;SDS011;25099;51.946;4.838;2024-02-16T01:02:48;3.58;;;3.28;;
39370;SDS011;25099;51.946;4.838;2024-02-16T01:05:14;5.53;;;3.75;;
39370;SDS011;25099;51.946;4.838;2024-02-16T01:07:42;6.30;;;3.40;;
39370;SDS011;25099;51.946;4.838;2024-02-16T01:10:08;3.50;;;3.20;;
39370;SDS011;25099;51.946;4.838;2024-02-16T01:12:34;6.25;;;4.28;;
39370;SDS011;25099;51.946;4.838;2024-02-16T01:15:00;5.07;;;3.55;;
39370;SDS011;25099;51.946;4.838;2024-02-16T01:17:26;6.53;;;3.47;;
39370;SDS011;25099;51.946;4.838;2024-02-16T01:19:51;4.03;;;3.50;;
39370;SDS011;25099;51.946;4.838;2024-02-16T01:22:17;6.53;;;3.53;;
39370;SDS011;25099;51.946;4.838;2024-02-16T01:24:43;4.75;;;3.67;;
39370;SDS011;25099;51.946;4.838;2024-02-16T01:27:09;4.15;;;3.75;;
39370;SDS011;25099;51.946;4.838;2024-02-16T01:29:35;5.55;;;3.38;;
39370;SDS011;25099;51.946;4.838;2024-02-16T01:32:01;8.25;;;3.55;;
39370;SDS011;25099;51.946;4.838;2024-02-16T01:34:41;3.65;;;3.35;;
39370;SDS011;25099;51.946;4.838;2024-02-16T01:37:09;3.83;;;3.22;;
39370;SDS011;25099;51.946;4.838;2024-02-16T01:39:34;4.00;;;3.35;;
39370;SDS011;25099;51.946;4.838;2024-02-16T01:42:00;7.40;;;3.22;;
39370;SDS011;25099;51.946;4.838;2024-02-16T01:44:25;7.35;;;3.70;;
39370;SDS011;25099;51.946;4.838;2024-02-16T01:49:32;4.68;;;3.03;;
39370;SDS011;25099;51.946;4.838;2024-02-16T01:52:10;5.38;;;3.10;;
39370;SDS011;25099;51.946;4.838;2024-02-16T01:54:37;7.07;;;3.63;;
39370;SDS011;25099;51.946;4.838;2024-02-16T01:57:08;5.80;;;3.13;;
39370;SDS011;25099;51.946;4.838;2024-02-16T01:59:35;3.67;;;3.33;;
39370;SDS011;25099;51.946;4.838;2024-02-16T02:02:05;3.95;;;3.60;;
39370;SDS011;25099;51.946;4.838;2024-02-16T02:04:30;4.20;;;3.00;;
39370;SDS011;25099;51.946;4.838;2024-02-16T02:06:56;5.50;;;3.33;;
39370;SDS011;25099;51.946;4.838;2024-02-16T02:09:22;7.60;;;3.65;;
39370;SDS011;25099;51.946;4.838;2024-02-16T02:11:47;4.35;;;3.28;;
39370;SDS011;25099;51.946;4.838;2024-02-16T02:14:13;3.45;;;3.15;;
39370;SDS011;25099;51.946;4.838;2024-02-16T02:16:39;4.95;;;3.40;;
39370;SDS011;25099;51.946;4.838;2024-02-16T02:19:05;4.70;;;3.25;;
39370;SDS011;25099;51.946;4.838;2024-02-16T02:21:30;6.25;;;3.83;;
39370;SDS011;25099;51.946;4.838;2024-02-16T02:23:56;4.18;;;3.40;;
39370;SDS011;25099;51.946;4.838;2024-02-16T02:26:22;7.25;;;3.50;;
39370;SDS011;25099;51.946;4.838;2024-02-16T02:28:47;5.50;;;3.60;;
39370;SDS011;25099;51.946;4.838;2024-02-16T02:31:13;8.68;;;3.55;;
39370;SDS011;25099;51.946;4.838;2024-02-16T02:33:38;6.32;;;3.42;;
39370;SDS011;25099;51.946;4.838;2024-02-16T02:36:22;5.32;;;3.42;;
39370;SDS011;25099;51.946;4.838;2024-02-16T02:38:48;4.88;;;3.97;;
39370;SDS011;25099;51.946;4.838;2024-02-16T02:41:14;6.00;;;2.80;;
39370;SDS011;25099;51.946;4.838;2024-02-16T02:43:45;4.53;;;3.08;;
39370;SDS011;25099;51.946;4.838;2024-02-16T02:46:14;5.38;;;3.92;;
39370;SDS011;25099;51.946;4.838;2024-02-16T02:48:41;5.72;;;2.97;;
39370;SDS011;25099;51.946;4.838;2024-02-16T02:51:08;3.85;;;3.25;;
39370;SDS011;25099;51.946;4.838;2024-02-16T02:53:43;5.43;;;3.22;;
39370;SDS011;25099;51.946;4.838;2024-02-16T02:56:09;3.45;;;3.03;;
39370;SDS011;25099;51.946;4.838;2024-02-16T02:58:34;3.25;;;2.95;;
39370;SDS011;25099;51.946;4.838;2024-02-16T03:01:00;6.13;;;3.58;;
39370;SDS011;25099;51.946;4.838;2024-02-16T03:03:25;5.78;;;3.50;;
39370;SDS011;25099;51.946;4.838;2024-02-16T03:05:51;3.95;;;3.22;;
39370;SDS011;25099;51.946;4.838;2024-02-16T03:08:17;4.32;;;3.50;;
39370;SDS011;25099;51.946;4.838;2024-02-16T03:10:42;5.07;;;3.20;;
39370;SDS011;25099;51.946;4.838;2024-02-16T03:13:09;8.43;;;3.78;;
39370;SDS011;25099;51.946;4.838;2024-02-16T03:15:37;4.13;;;3.22;;
39370;SDS011;25099;51.946;4.838;2024-02-16T03:18:04;3.40;;;2.78;;
39370;SDS011;25099;51.946;4.838;2024-02-16T03:20:33;6.38;;;3.70;;
39370;SDS011;25099;51.946;4.838;2024-02-16T03:22:58;4.90;;;3.75;;
39370;SDS011;25099;51.946;4.838;2024-02-16T03:25:33;7.03;;;3.20;;
39370;SDS011;25099;51.946;4.838;2024-02-16T03:28:02;3.85;;;3.28;;
39370;SDS011;25099;51.946;4.838;2024-02-16T03:30:27;3.90;;;3.30;;
39370;SDS011;25099;51.946;4.838;2024-02-16T03:32:53;4.00;;;3.42;;
39370;SDS011;25099;51.946;4.838;2024-02-16T03:35:22;4.35;;;3.13;;
39370;SDS011;25099;51.946;4.838;2024-02-16T03:37:47;5.40;;;3.33;;
39370;SDS011;25099;51.946;4.838;2024-02-16T03:40:20;5.20;;;3.60;;
39370;SDS011;25099;51.946;4.838;2024-02-16T03:42:47;5.28;;;3.47;;
39370;SDS011;25099;51.946;4.838;2024-02-16T03:45:13;5.32;;;3.35;;
39370;SDS011;25099;51.946;4.838;2024-02-16T03:47:42;6.63;;;3.50;;
39370;SDS011;25099;51.946;4.838;2024-02-16T03:50:08;4.45;;;3.35;;
39370;SDS011;25099;51.946;4.838;2024-02-16T03:52:33;5.57;;;3.63;;
39370;SDS011;25099;51.946;4.838;2024-02-16T03:54:59;6.55;;;3.72;;
39370;SDS011;25099;51.946;4.838;2024-02-16T03:57:25;5.38;;;3.58;;
39370;SDS011;25099;51.946;4.838;2024-02-16T03:59:51;3.47;;;3.15;;
39370;SDS011;25099;51.946;4.838;2024-02-16T04:02:16;3.97;;;3.65;;
39370;SDS011;25099;51.946;4.838;2024-02-16T04:04:42;5.03;;;3.72;;
39370;SDS011;25099;51.946;4.838;2024-02-16T04:07:07;3.88;;;3.38;;
39370;SDS011;25099;51.946;4.838;2024-02-16T04:09:33;4.45;;;3.17;;
39370;SDS011;25099;51.946;4.838;2024-02-16T04:12:00;7.63;;;3.75;;
39370;SDS011;25099;51.946;4.838;2024-02-16T04:14:26;4.40;;;3.35;;
39370;SDS011;25099;51.946;4.838;2024-02-16T04:16:52;3.88;;;3.25;;
39370;SDS011;25099;51.946;4.838;2024-02-16T04:19:17;4.95;;;3.20;;
39370;SDS011;25099;51.946;4.838;2024-02-16T04:21:43;5.57;;;3.63;;
39370;SDS011;25099;51.946;4.838;2024-02-16T04:24:09;5.60;;;3.20;;
39370;SDS011;25099;51.946;4.838;2024-02-16T04:26:34;5.38;;;3.08;;
39370;SDS011;25099;51.946;4.838;2024-02-16T04:29:00;3.90;;;3.40;;
39370;SDS011;25099;51.946;4.838;2024-02-16T04:31:26;3.70;;;3.13;;
39370;SDS011;25099;51.946;4.838;2024-02-16T04:33:51;4.38;;;3.40;;
39370;SDS011;25099;51.946;4.838;2024-02-16T04:36:18;4.00;;;3.40;;
39370;SDS011;25099;51.946;4.838;2024-02-16T04:38:44;3.30;;;3.00;;
39370;SDS011;25099;51.946;4.838;2024-02-16T04:41:09;5.20;;;3.72;;
39370;SDS011;25099;51.946;4.838;2024-02-16T04:43:35;3.92;;;3.53;;
39370;SDS011;25099;51.946;4.838;2024-02-16T04:46:01;5.68;;;3.65;;
39370;SDS011;25099;51.946;4.838;2024-02-16T04:48:27;6.88;;;3.42;;
39370;SDS011;25099;51.946;4.838;2024-02-16T04:50:54;4.20;;;3.42;;
39370;SDS011;25099;51.946;4.838;2024-02-16T04:53:19;3.33;;;3.00;;
39370;SDS011;25099;51.946;4.838;2024-02-16T04:55:45;4.63;;;3.30;;
39370;SDS011;25099;51.946;4.838;2024-02-16T04:58:10;4.90;;;3.72;;
39370;SDS011;25099;51.946;4.838;2024-02-16T05:00:37;6.78;;;3.38;;
39370;SDS011;25099;51.946;4.838;2024-02-16T05:03:02;4.57;;;3.70;;
39370;SDS011;25099;51.946;4.838;2024-02-16T05:05:28;5.88;;;3.10;;
39370;SDS011;25099;51.946;4.838;2024-02-16T05:07:54;4.50;;;3.25;;
39370;SDS011;25099;51.946;4.838;2024-02-16T05:10:19;3.50;;;3.20;;
39370;SDS011;25099;51.946;4.838;2024-02-16T05:12:45;4.63;;;3.38;;
39370;SDS011;25099;51.946;4.838;2024-02-16T05:15:11;4.22;;;3.63;;
39370;SDS011;25099;51.946;4.838;2024-02-16T05:17:39;5.63;;;3.60;;
39370;SDS011;25099;51.946;4.838;2024-02-16T05:20:09;10.07;;;3.78;;
39370;SDS011;25099;51.946;4.838;2024-02-16T05:22:43;9.35;;;3.33;;
39370;SDS011;25099;51.946;4.838;2024-02-16T05:25:10;3.60;;;3.30;;
39370;SDS011;25099;51.946;4.838;2024-02-16T05:27:40;4.70;;;3.65;;
39370;SDS011;25099;51.946;4.838;2024-02-16T05:30:05;4.05;;;3.75;;
39370;SDS011;25099;51.946;4.838;2024-02-16T05:32:35;5.97;;;3.97;;
39370;SDS011;25099;51.946;4.838;2024-02-16T05:35:02;3.90;;;3.50;;
39370;SDS011;25099;51.946;4.838;2024-02-16T05:37:40;3.70;;;3.13;;
39370;SDS011;25099;51.946;4.838;2024-02-16T05:40:09;4.47;;;3.38;;
39370;SDS011;25099;51.946;4.838;2024-02-16T05:42:49;8.88;;;3.85;;
39370;SDS011;25099;51.946;4.838;2024-02-16T05:45:16;6.60;;;3.63;;
39370;SDS011;25099;51.946;4.838;2024-02-16T05:47:43;4.90;;;3.47;;
39370;SDS011;25099;51.946;4.838;2024-02-16T05:50:10;5.68;;;4.10;;
39370;SDS011;25099;51.946;4.838;2024-02-16T05:52:36;5.05;;;3.53;;
39370;SDS011;25099;51.946;4.838;2024-02-16T05:55:06;11.93;;;4.03;;
39370;SDS011;25099;51.946;4.838;2024-02-16T05:57:33;5.72;;;3.65;;
39370;SDS011;25099;51.946;4.838;2024-02-16T05:59:59;5.75;;;4.45;;
39370;SDS011;25099;51.946;4.838;2024-02-16T06:02:25;4.80;;;4.32;;
39370;SDS011;25099;51.946;4.838;2024-02-16T06:04:52;4.30;;;3.50;;
39370;SDS011;25099;51.946;4.838;2024-02-16T06:07:18;5.90;;;3.70;;
39370;SDS011;25099;51.946;4.838;2024-02-16T06:09:43;5.25;;;4.10;;
39370;SDS011;25099;51.946;4.838;2024-02-16T06:12:09;7.07;;;4.15;;
39370;SDS011;25099;51.946;4.838;2024-02-16T06:14:35;6.68;;;3.97;;
39370;SDS011;25099;51.946;4.838;2024-02-16T06:17:02;6.63;;;4.13;;
39370;SDS011;25099;51.946;4.838;2024-02-16T06:19:28;5.82;;;3.63;;
39370;SDS011;25099;51.946;4.838;2024-02-16T06:21:54;4.20;;;3.67;;
39370;SDS011;25099;51.946;4.838;2024-02-16T06:24:20;5.10;;;3.50;;
39370;SDS011;25099;51.946;4.838;2024-02-16T06:26:46;5.45;;;3.95;;
39370;SDS011;25099;51.946;4.838;2024-02-16T06:29:13;6.07;;;3.67;;
39370;SDS011;25099;51.946;4.838;2024-02-16T06:31:38;4.63;;;3.65;;
39370;SDS011;25099;51.946;4.838;2024-02-16T06:34:04;6.53;;;4.22;;
39370;SDS011;25099;51.946;4.838;2024-02-16T06:36:30;5.82;;;3.90;;
39370;SDS011;25099;51.946;4.838;2024-02-16T06:38:55;6.28;;;3.63;;
39370;SDS011;25099;51.946;4.838;2024-02-16T06:41:21;5.95;;;3.65;;
39370;SDS011;25099;51.946;4.838;2024-02-16T06:43:46;5.88;;;4.32;;
39370;SDS011;25099;51.946;4.838;2024-02-16T06:46:12;5.07;;;4.55;;
39370;SDS011;25099;51.946;4.838;2024-02-16T06:48:37;4.43;;;4.03;;
39370;SDS011;25099;51.946;4.838;2024-02-16T06:51:03;4.30;;;3.85;;
39370;SDS011;25099;51.946;4.838;2024-02-16T06:53:29;4.82;;;3.95;;
39370;SDS011;25099;51.946;4.838;2024-02-16T06:55:54;8.93;;;4.65;;
39370;SDS011;25099;51.946;4.838;2024-02-16T06:58:20;6.32;;;4.35;;
39370;SDS011;25099;51.946;4.838;2024-02-16T07:00:45;5.03;;;3.97;;
39370;SDS011;25099;51.946;4.838;2024-02-16T07:03:11;5.20;;;4.10;;
39370;SDS011;25099;51.946;4.838;2024-02-16T07:05:37;7.13;;;4.30;;
39370;SDS011;25099;51.946;4.838;2024-02-16T07:08:05;10.57;;;4.50;;
39370;SDS011;25099;51.946;4.838;2024-02-16T07:10:32;4.95;;;4.30;;
39370;SDS011;25099;51.946;4.838;2024-02-16T07:12:58;6.88;;;4.75;;
39370;SDS011;25099;51.946;4.838;2024-02-16T07:15:23;5.75;;;4.72;;
39370;SDS011;25099;51.946;4.838;2024-02-16T07:17:51;11.30;;;4.93;;
39370;SDS011;25099;51.946;4.838;2024-02-16T07:20:16;7.97;;;5.10;;
39370;SDS011;25099;51.946;4.838;2024-02-16T07:22:43;7.97;;;5.10;;
39370;SDS011;25099;51.946;4.838;2024-02-16T07:25:11;6.07;;;4.45;;
39370;SDS011;25099;51.946;4.838;2024-02-16T07:27:37;7.80;;;4.82;;
39370;SDS011;25099;51.946;4.838;2024-02-16T07:30:03;7.25;;;4.68;;
39370;SDS011;25099;51.946;4.838;2024-02-16T07:32:29;10.68;;;4.90;;
39370;SDS011;25099;51.946;4.838;2024-02-16T07:34:55;7.63;;;4.60;;
39370;SDS011;25099;51.946;4.838;2024-02-16T07:37:20;10.95;;;5.40;;
39370;SDS011;25099;51.946;4.838;2024-02-16T07:39:46;7.40;;;4.78;;
39370;SDS011;25099;51.946;4.838;2024-02-16T07:42:11;8.57;;;5.40;;
39370;SDS011;25099;51.946;4.838;2024-02-16T07:44:38;6.65;;;5.18;;
39370;SDS011;25099;51.946;4.838;2024-02-16T07:47:04;7.10;;;5.43;;
39370;SDS011;25099;51.946;4.838;2024-02-16T07:49:30;7.43;;;5.65;;
39370;SDS011;25099;51.946;4.838;2024-02-16T07:51:55;6.88;;;5.68;;
39370;SDS011;25099;51.946;4.838;2024-02-16T07:54:21;15.02;;;5.78;;
39370;SDS011;25099;51.946;4.838;2024-02-16T07:56:46;7.88;;;5.05;;
39370;SDS011;25099;51.946;4.838;2024-02-16T07:59:12;7.55;;;5.15;;
39370;SDS011;25099;51.946;4.838;2024-02-16T08:01:38;8.82;;;5.65;;
39370;SDS011;25099;51.946;4.838;2024-02-16T08:04:04;7.53;;;5.15;;
39370;SDS011;25099;51.946;4.838;2024-02-16T08:06:29;6.93;;;5.10;;
39370;SDS011;25099;51.946;4.838;2024-02-16T08:08:55;5.95;;;4.93;;
39370;SDS011;25099;51.946;4.838;2024-02-16T08:11:20;7.55;;;5.43;;
39370;SDS011;25099;51.946;4.838;2024-02-16T08:13:47;8.23;;;4.70;;
39370;SDS011;25099;51.946;4.838;2024-02-16T08:16:12;6.47;;;5.03;;
39370;SDS011;25099;51.946;4.838;2024-02-16T08:18:38;11.07;;;4.95;;
39370;SDS011;25099;51.946;4.838;2024-02-16T08:21:04;5.97;;;4.90;;
39370;SDS011;25099;51.946;4.838;2024-02-16T08:23:29;8.90;;;5.38;;
39370;SDS011;25099;51.946;4.838;2024-02-16T08:25:56;11.55;;;5.57;;
39370;SDS011;25099;51.946;4.838;2024-02-16T08:28:22;10.70;;;5.43;;
39370;SDS011;25099;51.946;4.838;2024-02-16T08:30:47;7.90;;;5.13;;
39370;SDS011;25099;51.946;4.838;2024-02-16T08:33:13;8.07;;;5.03;;
39370;SDS011;25099;51.946;4.838;2024-02-16T08:35:39;7.07;;;5.25;;
39370;SDS011;25099;51.946;4.838;2024-02-16T08:38:04;11.45;;;5.53;;
39370;SDS011;25099;51.946;4.838;2024-02-16T08:40:30;8.88;;;5.78;;
39370;SDS011;25099;51.946;4.838;2024-02-16T08:42:56;8.23;;;5.88;;
39370;SDS011;25099;51.946;4.838;2024-02-16T08:45:22;10.43;;;6.45;;
39370;SDS011;25099;51.946;4.838;2024-02-16T08:47:47;10.02;;;5.65;;
39370;SDS011;25099;51.946;4.838;2024-02-16T08:50:13;10.88;;;5.50;;
39370;SDS011;25099;51.946;4.838;2024-02-16T08:52:39;14.18;;;5.70;;
39370;SDS011;25099;51.946;4.838;2024-02-16T08:55:04;7.55;;;4.97;;
39370;SDS011;25099;51.946;4.838;2024-02-16T08:57:33;9.45;;;5.03;;
39370;SDS011;25099;51.946;4.838;2024-02-16T08:59:59;10.07;;;5.32;;
39370;SDS011;25099;51.946;4.838;2024-02-16T09:02:24;13.07;;;5.93;;
39370;SDS011;25099;51.946;4.838;2024-02-16T09:04:50;9.02;;;6.22;;
39370;SDS011;25099;51.946;4.838;2024-02-16T09:07:15;6.82;;;6.00;;
39370;SDS011;25099;51.946;4.838;2024-02-16T09:09:41;8.75;;;5.55;;
39370;SDS011;25099;51.946;4.838;2024-02-16T09:12:06;8.98;;;5.65;;
39370;SDS011;25099;51.946;4.838;2024-02-16T09:14:32;8.00;;;6.38;;
39370;SDS011;25099;51.946;4.838;2024-02-16T09:16:58;11.15;;;5.47;;
39370;SDS011;25099;51.946;4.838;2024-02-16T09:19:23;9.63;;;5.63;;
39370;SDS011;25099;51.946;4.838;2024-02-16T09:21:49;8.85;;;6.28;;
39370;SDS011;25099;51.946;4.838;2024-02-16T09:24:16;10.55;;;5.38;;
39370;SDS011;25099;51.946;4.838;2024-02-16T09:26:46;9.93;;;6.55;;
39370;SDS011;25099;51.946;4.838;2024-02-16T09:29:14;6.68;;;5.60;;
39370;SDS011;25099;51.946;4.838;2024-02-16T09:31:40;7.82;;;5.93;;
39370;SDS011;25099;51.946;4.838;2024-02-16T09:34:06;11.55;;;6.63;;
39370;SDS011;25099;51.946;4.838;2024-02-16T09:36:32;7.20;;;6.47;;
39370;SDS011;25099;51.946;4.838;2024-02-16T09:38:57;9.50;;;5.75;;
39370;SDS011;25099;51.946;4.838;2024-02-16T09:41:23;12.88;;;5.82;;
39370;SDS011;25099;51.946;4.838;2024-02-16T09:43:49;9.60;;;5.70;;
39370;SDS011;25099;51.946;4.838;2024-02-16T09:46:18;7.30;;;5.63;;
39370;SDS011;25099;51.946;4.838;2024-02-16T09:48:46;12.82;;;6.63;;
39370;SDS011;25099;51.946;4.838;2024-02-16T09:51:17;10.40;;;6.53;;
39370;SDS011;25099;51.946;4.838;2024-02-16T09:53:43;11.57;;;7.03;;
39370;SDS011;25099;51.946;4.838;2024-02-16T09:56:17;15.20;;;7.43;;
39370;SDS011;25099;51.946;4.838;2024-02-16T09:58:42;7.85;;;6.22;;
39370;SDS011;25099;51.946;4.838;2024-02-16T10:01:16;17.55;;;6.82;;
39370;SDS011;25099;51.946;4.838;2024-02-16T10:03:44;8.02;;;5.82;;
39370;SDS011;25099;51.946;4.838;2024-02-16T10:06:10;9.57;;;6.95;;
39370;SDS011;25099;51.946;4.838;2024-02-16T10:11:15;12.98;;;8.05;;
39370;SDS011;25099;51.946;4.838;2024-02-16T10:13:43;10.95;;;7.90;;
39370;SDS011;25099;51.946;4.838;2024-02-16T10:16:26;13.48;;;8.23;;
39370;SDS011;25099;51.946;4.838;2024-02-16T10:18:55;15.55;;;9.27;;
39370;SDS011;25099;51.946;4.838;2024-02-16T10:21:28;16.50;;;8.90;;
39370;SDS011;25099;51.946;4.838;2024-02-16T10:23:55;10.38;;;8.27;;
39370;SDS011;25099;51.946;4.838;2024-02-16T10:26:41;16.63;;;9.35;;
39370;SDS011;25099;51.946;4.838;2024-02-16T10:29:10;17.33;;;9.95;;
39370;SDS011;25099;51.946;4.838;2024-02-16T10:31:38;17.45;;;10.38;;
39370;SDS011;25099;51.946;4.838;2024-02-16T10:34:04;21.67;;;11.02;;
39370;SDS011;25099;51.946;4.838;2024-02-16T10:36:34;20.60;;;11.88;;
39370;SDS011;25099;51.946;4.838;2024-02-16T10:39:04;20.48;;;11.52;;
39370;SDS011;25099;51.946;4.838;2024-02-16T10:41:34;20.63;;;11.70;;
39370;SDS011;25099;51.946;4.838;2024-02-16T10:44:05;27.83;;;13.13;;
39370;SDS011;25099;51.946;4.838;2024-02-16T10:46:31;26.85;;;12.73;;
39370;SDS011;25099;51.946;4.838;2024-02-16T10:48:57;16.77;;;10.93;;
39370;SDS011;25099;51.946;4.838;2024-02-16T10:51:24;18.92;;;11.88;;
39370;SDS011;25099;51.946;4.838;2024-02-16T10:54:11;20.83;;;11.50;;
39370;SDS011;25099;51.946;4.838;2024-02-16T10:56:40;22.27;;;12.70;;
39370;SDS011;25099;51.946;4.838;2024-02-16T10:59:07;21.65;;;12.65;;
39370;SDS011;25099;51.946;4.838;2024-02-16T11:01:41;21.20;;;12.10;;
39370;SDS011;25099;51.946;4.838;2024-02-16T11:04:08;20.85;;;12.52;;
39370;SDS011;25099;51.946;4.838;2024-02-16T11:06:49;17.02;;;11.15;;
39370;SDS011;25099;51.946;4.838;2024-02-16T11:09:34;18.48;;;11.18;;
39370;SDS011;25099;51.946;4.838;2024-02-16T11:12:06;17.10;;;11.15;;
39370;SDS011;25099;51.946;4.838;2024-02-16T11:14:46;13.07;;;11.30;;
39370;SDS011;25099;51.946;4.838;2024-02-16T11:17:20;13.85;;;11.35;;
39370;SDS011;25099;51.946;4.838;2024-02-16T11:19:47;14.10;;;11.75;;
39370;SDS011;25099;51.946;4.838;2024-02-16T11:22:17;19.10;;;12.10;;
39370;SDS011;25099;51.946;4.838;2024-02-16T11:24:46;22.65;;;13.32;;
39370;SDS011;25099;51.946;4.838;2024-02-16T11:27:12;22.33;;;11.68;;
39370;SDS011;25099;51.946;4.838;2024-02-16T11:29:46;14.07;;;11.38;;
39370;SDS011;25099;51.946;4.838;2024-02-16T11:32:12;18.83;;;12.65;;
39370;SDS011;25099;51.946;4.838;2024-02-16T11:34:37;21.60;;;13.48;;
39370;SDS011;25099;51.946;4.838;2024-02-16T11:37:03;20.90;;;13.00;;
39370;SDS011;25099;51.946;4.838;2024-02-16T11:39:32;23.35;;;13.95;;
39370;SDS011;25099;51.946;4.838;2024-02-16T11:42:08;22.52;;;14.05;;
39370;SDS011;25099;51.946;4.838;2024-02-16T11:44:38;16.63;;;13.05;;
39370;SDS011;25099;51.946;4.838;2024-02-16T11:47:10;17.73;;;11.43;;
39370;SDS011;25099;51.946;4.838;2024-02-16T11:49:40;11.52;;;10.35;;
39370;SDS011;25099;51.946;4.838;2024-02-16T11:52:07;11.43;;;9.93;;
39370;SDS011;25099;51.946;4.838;2024-02-16T11:54:33;10.38;;;7.85;;
39370;SDS011;25099;51.946;4.838;2024-02-16T11:56:58;12.13;;;8.35;;
39370;SDS011;25099;51.946;4.838;2024-02-16T11:59:24;8.20;;;7.47;;
39370;SDS011;25099;51.946;4.838;2024-02-16T12:02:04;10.27;;;7.37;;
39370;SDS011;25099;51.946;4.838;2024-02-16T12:04:31;6.47;;;5.88;;
39370;SDS011;25099;51.946;4.838;2024-02-16T12:06:57;9.57;;;6.70;;
39370;SDS011;25099;51.946;4.838;2024-02-16T12:09:33;9.27;;;7.05;;
39370;SDS011;25099;51.946;4.838;2024-02-16T12:11:59;7.57;;;6.55;;
39370;SDS011;25099;51.946;4.838;2024-02-16T12:14:25;8.13;;;5.88;;
39370;SDS011;25099;51.946;4.838;2024-02-16T12:16:59;8.07;;;6.28;;
39370;SDS011;25099;51.946;4.838;2024-02-16T12:19:25;6.05;;;5.45;;
39370;SDS011;25099;51.946;4.838;2024-02-16T12:21:51;7.78;;;5.55;;
39370;SDS011;25099;51.946;4.838;2024-02-16T12:24:20;8.98;;;5.28;;
39370;SDS011;25099;51.946;4.838;2024-02-16T12:26:46;6.35;;;5.20;;
39370;SDS011;25099;51.946;4.838;2024-02-16T12:29:12;6.05;;;4.72;;
39370;SDS011;25099;51.946;4.838;2024-02-16T12:31:39;7.68;;;4.72;;
39370;SDS011;25099;51.946;4.838;2024-02-16T12:34:06;5.30;;;4.80;;
39370;SDS011;25099;51.946;4.838;2024-02-16T12:36:32;6.50;;;4.65;;
39370;SDS011;25099;51.946;4.838;2024-02-16T12:38:59;5.18;;;4.18;;
39370;SDS011;25099;51.946;4.838;2024-02-16T12:41:26;4.05;;;3.60;;
39370;SDS011;25099;51.946;4.838;2024-02-16T12:43:52;7.15;;;4.50;;
39370;SDS011;25099;51.946;4.838;2024-02-16T12:46:30;4.68;;;3.63;;
39370;SDS011;25099;51.946;4.838;2024-02-16T12:48:57;4.47;;;3.70;;
39370;SDS011;25099;51.946;4.838;2024-02-16T12:51:22;5.55;;;3.80;;
39370;SDS011;25099;51.946;4.838;2024-02-16T12:53:48;4.05;;;3.67;;
39370;SDS011;25099;51.946;4.838;2024-02-16T12:56:14;4.22;;;2.78;;
39370;SDS011;25099;51.946;4.838;2024-02-16T12:58:40;7.30;;;3.17;;
39370;SDS011;25099;51.946;4.838;2024-02-16T13:01:06;3.05;;;2.75;;
39370;SDS011;25099;51.946;4.838;2024-02-16T13:03:36;4.93;;;3.00;;
39370;SDS011;25099;51.946;4.838;2024-02-16T13:06:04;5.50;;;2.58;;
39370;SDS011;25099;51.946;4.838;2024-02-16T13:08:30;5.40;;;2.78;;
39370;SDS011;25099;51.946;4.838;2024-02-16T13:10:56;8.70;;;3.50;;
39370;SDS011;25099;51.946;4.838;2024-02-16T13:13:24;4.68;;;3.20;;
39370;SDS011;25099;51.946;4.838;2024-02-16T13:15:49;5.28;;;3.53;;
39370;SDS011;25099;51.946;4.838;2024-02-16T13:18:16;4.88;;;3.33;;
39370;SDS011;25099;51.946;4.838;2024-02-16T13:20:42;6.30;;;3.70;;
39370;SDS011;25099;51.946;4.838;2024-02-16T13:23:09;3.92;;;3.63;;
39370;SDS011;25099;51.946;4.838;2024-02-16T13:25:35;5.55;;;4.20;;
39370;SDS011;25099;51.946;4.838;2024-02-16T13:28:10;7.78;;;4.45;;
39370;SDS011;25099;51.946;4.838;2024-02-16T13:30:44;6.93;;;5.45;;
39370;SDS011;25099;51.946;4.838;2024-02-16T13:33:09;6.95;;;5.43;;
39370;SDS011;25099;51.946;4.838;2024-02-16T13:35:35;6.82;;;6.13;;
39370;SDS011;25099;51.946;4.838;2024-02-16T13:38:01;7.22;;;6.50;;
39370;SDS011;25099;51.946;4.838;2024-02-16T13:40:26;8.02;;;6.18;;
39370;SDS011;25099;51.946;4.838;2024-02-16T13:42:59;8.75;;;6.72;;
39370;SDS011;25099;51.946;4.838;2024-02-16T13:45:47;7.65;;;6.93;;
39370;SDS011;25099;51.946;4.838;2024-02-16T13:48:17;7.10;;;5.70;;
39370;SDS011;25099;51.946;4.838;2024-02-16T13:50:49;6.85;;;6.20;;
39370;SDS011;25099;51.946;4.838;2024-02-16T13:53:16;7.57;;;6.10;;
39370;SDS011;25099;51.946;4.838;2024-02-16T13:55:43;7.55;;;6.50;;
39370;SDS011;25099;51.946;4.838;2024-02-16T13:58:12;6.45;;;5.85;;
39370;SDS011;25099;51.946;4.838;2024-02-16T14:00:38;9.77;;;7.10;;
39370;SDS011;25099;51.946;4.838;2024-02-16T14:03:16;7.28;;;6.68;;
39370;SDS011;25099;51.946;4.838;2024-02-16T14:05:42;9.85;;;6.20;;
39370;SDS011;25099;51.946;4.838;2024-02-16T14:08:10;7.30;;;5.95;;
39370;SDS011;25099;51.946;4.838;2024-02-16T14:10:37;6.78;;;5.82;;
39370;SDS011;25099;51.946;4.838;2024-02-16T14:13:03;6.85;;;6.15;;
39370;SDS011;25099;51.946;4.838;2024-02-16T14:15:29;7.90;;;5.63;;
39370;SDS011;25099;51.946;4.838;2024-02-16T14:17:58;6.82;;;6.05;;
39370;SDS011;25099;51.946;4.838;2024-02-16T14:20:24;7.47;;;6.18;;
39370;SDS011;25099;51.946;4.838;2024-02-16T14:22:50;7.35;;;6.53;;
39370;SDS011;25099;51.946;4.838;2024-02-16T14:25:15;6.40;;;5.78;;
39370;SDS011;25099;51.946;4.838;2024-02-16T14:27:43;6.97;;;6.28;;
39370;SDS011;25099;51.946;4.838;2024-02-16T14:30:12;9.35;;;7.15;;
39370;SDS011;25099;51.946;4.838;2024-02-16T14:32:38;7.18;;;6.57;;
39370;SDS011;25099;51.946;4.838;2024-02-16T14:35:04;8.23;;;6.75;;
39370;SDS011;25099;51.946;4.838;2024-02-16T14:37:32;7.32;;;6.40;;
39370;SDS011;25099;51.946;4.838;2024-02-16T14:39:58;7.88;;;6.55;;
39370;SDS011;25099;51.946;4.838;2024-02-16T14:42:25;8.30;;;7.00;;
39370;SDS011;25099;51.946;4.838;2024-02-16T14:44:51;7.72;;;7.03;;
39370;SDS011;25099;51.946;4.838;2024-02-16T14:47:17;7.82;;;7.10;;
39370;SDS011;25099;51.946;4.838;2024-02-16T14:49:43;10.07;;;6.78;;